Time;durP1;ratioP1;P1;durP2;ratioP2;P2;SDS_P1;SDS_P2;PMS_P1;PMS_P2;Temp;Humidity;BMP_temperature;BMP_pressure;BME280_temperature;BME280_humidity;BME280_pressure;Samples;Min_cycle;Max_cycle;Signal;HPM_P1;HPM_P2
2021/07/22 00:00:48;;;;;;;2.22;1.70;;;;;;;;;;10487360;27;20050;-66
2021/07/22 00:05:46;;;;;;;2.90;1.70;;;;;;;;;;10487026;27;20046;-65
2021/07/22 00:10:44;;;;;;;2.55;1.73;;;;;;;;;;10486916;27;20050;-66
2021/07/22 00:15:44;;;;;;;6.72;2.00;;;;;;;;;;10485670;27;20082;-66
2021/07/22 00:20:42;;;;;;;3.13;1.52;;;;;;;;;;10485949;27;20051;-66
2021/07/22 00:25:41;;;;;;;2.67;2.05;;;;;;;;;;10485684;27;20101;-65
2021/07/22 00:30:39;;;;;;;3.20;1.83;;;;;;;;;;10485825;27;20039;-66
2021/07/22 00:35:39;;;;;;;3.47;1.80;;;;;;;;;;10485781;27;20042;-66
2021/07/22 00:40:43;;;;;;;4.57;1.90;;;;;;;;;;10485028;27;20140;-66
2021/07/22 00:45:42;;;;;;;6.45;2.00;;;;;;;;;;10485433;27;20062;-67
2021/07/22 00:50:43;;;;;;;9.88;1.70;;;;;;;;;;10485298;27;20494;-66
2021/07/22 00:55:41;;;;;;;3.78;1.70;;;;;;;;;;10466874;27;20047;-66
2021/07/22 01:00:40;;;;;;;4.20;2.78;;;;;;;;;;10466313;27;20039;-66
2021/07/22 01:05:39;;;;;;;2.45;2.08;;;;;;;;;;10466132;27;20074;-66
2021/07/22 01:10:39;;;;;;;4.28;1.63;;;;;;;;;;10484405;27;20103;-66
2021/07/22 01:15:37;;;;;;;8.02;2.08;;;;;;;;;;10483620;27;20054;-66
2021/07/22 01:20:38;;;;;;;2.95;1.73;;;;;;;;;;10465509;27;20046;-66
2021/07/22 01:25:37;;;;;;;1.98;1.75;;;;;;;;;;10483708;27;20482;-66
2021/07/22 01:30:35;;;;;;;3.55;1.67;;;;;;;;;;10483033;27;20049;-66
2021/07/22 01:35:34;;;;;;;3.15;1.95;;;;;;;;;;10483716;27;20042;-63
2021/07/22 01:40:34;;;;;;;2.20;1.77;;;;;;;;;;10464927;27;20047;-63
2021/07/22 01:45:32;;;;;;;2.92;2.28;;;;;;;;;;10482863;27;20077;-63
2021/07/22 01:50:31;;;;;;;2.45;2.05;;;;;;;;;;10463169;27;20053;-63
2021/07/22 01:55:31;;;;;;;3.58;1.77;;;;;;;;;;10482129;27;20495;-63
2021/07/22 02:00:34;;;;;;;5.90;2.40;;;;;;;;;;10463643;27;20660;-63
2021/07/22 02:05:33;;;;;;;2.38;1.83;;;;;;;;;;10464128;27;20049;-63
2021/07/22 02:10:31;;;;;;;4.13;2.08;;;;;;;;;;10463509;27;20061;-63
2021/07/22 02:15:30;;;;;;;3.58;2.00;;;;;;;;;;10463084;27;20526;-64
2021/07/22 02:20:30;;;;;;;2.20;2.00;;;;;;;;;;10481091;27;20085;-63
2021/07/22 02:25:30;;;;;;;2.72;2.00;;;;;;;;;;10463200;27;20528;-63
2021/07/22 02:30:31;;;;;;;2.67;1.88;;;;;;;;;;10463149;27;20051;-63
2021/07/22 02:35:31;;;;;;;2.70;2.33;;;;;;;;;;10462543;27;20054;-64
2021/07/22 02:40:48;;;;;;;3.78;2.17;;;;;;;;;;10493295;27;20054;-63
2021/07/22 02:45:49;;;;;;;7.10;2.20;;;;;;;;;;10462895;27;20066;-65
2021/07/22 02:50:50;;;;;;;3.17;2.17;;;;;;;;;;10462997;27;20065;-63
2021/07/22 02:55:49;;;;;;;4.10;2.03;;;;;;;;;;10481046;27;20498;-64
2021/07/22 03:00:49;;;;;;;6.80;2.72;;;;;;;;;;10454358;27;20543;-63
2021/07/22 03:05:51;;;;;;;5.45;2.38;;;;;;;;;;10403020;27;20060;-63
2021/07/22 03:10:50;;;;;;;28.10;7.72;;;;;;;;;;10405223;27;20492;-63
2021/07/22 03:15:48;;;;;;;4.45;2.40;;;;;;;;;;10407783;27;20423;-63
2021/07/22 03:21:08;;;;;;;6.55;2.55;;;;;;;;;;10418094;27;20443;-62
2021/07/22 03:26:10;;;;;;;5.38;2.80;;;;;;;;;;10410552;27;20087;-63
2021/07/22 03:31:12;;;;;;;7.85;3.78;;;;;;;;;;10429029;27;20055;-63
2021/07/22 03:36:21;;;;;;;4.60;3.65;;;;;;;;;;10421206;27;20075;-64
2021/07/22 03:41:31;;;;;;;13.50;4.80;;;;;;;;;;10424539;27;20074;-63
2021/07/22 03:46:39;;;;;;;8.88;4.18;;;;;;;;;;10426323;27;20085;-63
2021/07/22 03:51:41;;;;;;;7.43;4.38;;;;;;;;;;10444869;27;20046;-63
2021/07/22 03:56:41;;;;;;;8.85;6.35;;;;;;;;;;10426436;27;20051;-63
2021/07/22 04:01:47;;;;;;;7.78;6.03;;;;;;;;;;10425878;27;20047;-63
2021/07/22 04:06:57;;;;;;;10.65;6.95;;;;;;;;;;10425732;27;20058;-64
2021/07/22 04:12:16;;;;;;;11.80;5.50;;;;;;;;;;10425119;27;20419;-63
2021/07/22 04:17:32;;;;;;;7.38;3.60;;;;;;;;;;10445051;27;20062;-64
2021/07/22 04:22:40;;;;;;;9.02;4.95;;;;;;;;;;10425651;27;20055;-63
2021/07/22 04:27:54;;;;;;;5.50;4.30;;;;;;;;;;10425739;27;20054;-63
2021/07/22 04:32:57;;;;;;;6.50;4.43;;;;;;;;;;10425262;27;20059;-64
2021/07/22 04:38:23;;;;;;;8.50;4.38;;;;;;;;;;10425077;27;20062;-63
2021/07/22 04:43:46;;;;;;;8.07;4.25;;;;;;;;;;10444159;27;20093;-63
2021/07/22 04:49:04;;;;;;;10.18;4.45;;;;;;;;;;10443638;27;20043;-64
2021/07/22 04:54:27;;;;;;;9.73;3.58;;;;;;;;;;10432943;27;20495;-63
2021/07/22 04:59:26;;;;;;;6.38;3.40;;;;;;;;;;10424153;27;20068;-63
2021/07/22 05:04:25;;;;;;;10.25;4.03;;;;;;;;;;10423827;27;20542;-63
2021/07/22 05:09:29;;;;;;;10.25;5.38;;;;;;;;;;10423824;27;20047;-63
2021/07/22 05:14:35;;;;;;;14.85;9.23;;;;;;;;;;10423252;27;20055;-63
2021/07/22 05:20:06;;;;;;;19.77;15.35;;;;;;;;;;10386229;27;20062;-63
2021/07/22 05:25:18;;;;;;;16.88;11.05;;;;;;;;;;10442326;27;20089;-63
2021/07/22 05:30:43;;;;;;;14.40;9.55;;;;;;;;;;10402391;27;20051;-64
2021/07/22 05:35:49;;;;;;;13.85;9.43;;;;;;;;;;10441105;27;20074;-63
2021/07/22 05:41:06;;;;;;;19.08;9.63;;;;;;;;;;10422316;27;20051;-63
2021/07/22 05:46:04;;;;;;;28.35;22.60;;;;;;;;;;10422182;27;20058;-63
2021/07/22 05:51:03;;;;;;;18.40;12.77;;;;;;;;;;10440830;27;20050;-63
2021/07/22 05:56:02;;;;;;;17.30;11.98;;;;;;;;;;10440895;27;20459;-64
2021/07/22 06:01:04;;;;;;;14.57;10.98;;;;;;;;;;10440476;27;20046;-64
2021/07/22 06:06:04;;;;;;;21.35;11.13;;;;;;;;;;10439622;27;20097;-64
2021/07/22 06:11:05;;;;;;;16.17;8.85;;;;;;;;;;10440250;27;20057;-64
2021/07/22 06:16:08;;;;;;;9.73;6.20;;;;;;;;;;10440209;28;20054;-64
2021/07/22 06:21:07;;;;;;;17.00;9.77;;;;;;;;;;10421965;28;20039;-64
2021/07/22 06:26:06;;;;;;;15.63;8.30;;;;;;;;;;10439838;28;20079;-63
2021/07/22 06:31:06;;;;;;;15.13;8.25;;;;;;;;;;10438833;28;20051;-63
2021/07/22 06:36:04;;;;;;;24.05;9.73;;;;;;;;;;10442321;27;20042;-63
2021/07/22 06:41:03;;;;;;;14.95;8.05;;;;;;;;;;10447746;27;20059;-63
2021/07/22 06:46:01;;;;;;;13.27;8.75;;;;;;;;;;10447749;27;20075;-63
2021/07/22 06:51:01;;;;;;;19.05;9.48;;;;;;;;;;10446977;27;20078;-64
2021/07/22 06:55:59;;;;;;;11.85;7.40;;;;;;;;;;10447721;27;20063;-64
2021/07/22 07:00:58;;;;;;;13.25;7.72;;;;;;;;;;10447007;27;20065;-64
2021/07/22 07:05:56;;;;;;;12.93;7.70;;;;;;;;;;10447142;27;20373;-63
2021/07/22 07:10:56;;;;;;;17.70;9.95;;;;;;;;;;10446903;27;20431;-63
2021/07/22 07:15:54;;;;;;;10.13;7.88;;;;;;;;;;10446398;27;20071;-64
2021/07/22 07:20:52;;;;;;;12.20;9.70;;;;;;;;;;10446250;27;20047;-64
2021/07/22 07:25:51;;;;;;;16.75;10.27;;;;;;;;;;10445460;27;20068;-63
2021/07/22 07:30:50;;;;;;;14.05;9.73;;;;;;;;;;10445675;27;20055;-63
2021/07/22 07:35:49;;;;;;;11.45;7.45;;;;;;;;;;10446144;27;20720;-63
2021/07/22 07:40:47;;;;;;;13.20;8.77;;;;;;;;;;10445868;27;20035;-63
2021/07/22 07:45:46;;;;;;;9.65;7.47;;;;;;;;;;10445446;27;20467;-64
2021/07/22 07:50:45;;;;;;;7.63;6.30;;;;;;;;;;10443831;27;20082;-63
2021/07/22 07:55:44;;;;;;;9.70;6.32;;;;;;;;;;10444593;27;20087;-63
2021/07/22 08:00:42;;;;;;;13.25;6.55;;;;;;;;;;10445113;27;20427;-63
2021/07/22 08:05:41;;;;;;;12.52;5.95;;;;;;;;;;10444687;27;20051;-63
2021/07/22 08:10:41;;;;;;;12.02;5.80;;;;;;;;;;10444667;27;20055;-63
2021/07/22 08:15:42;;;;;;;11.98;5.40;;;;;;;;;;10444445;27;20043;-64
2021/07/22 08:20:40;;;;;;;12.27;5.88;;;;;;;;;;10444387;27;20046;-63
2021/07/22 08:25:38;;;;;;;10.75;4.20;;;;;;;;;;10443901;27;20090;-64
2021/07/22 08:30:38;;;;;;;4.97;3.55;;;;;;;;;;10443701;27;20071;-63
2021/07/22 08:35:36;;;;;;;7.57;3.42;;;;;;;;;;10443620;27;20046;-63
2021/07/22 08:40:35;;;;;;;3.85;2.53;;;;;;;;;;10443418;27;20415;-63
2021/07/22 08:45:33;;;;;;;5.18;3.10;;;;;;;;;;10443196;27;20035;-64
2021/07/22 08:50:33;;;;;;;9.18;3.50;;;;;;;;;;10442886;27;20081;-64
2021/07/22 08:55:31;;;;;;;11.60;5.55;;;;;;;;;;10424127;27;20047;-64
2021/07/22 09:00:30;;;;;;;10.98;5.53;;;;;;;;;;10442185;27;20039;-64
2021/07/22 09:05:29;;;;;;;7.78;4.22;;;;;;;;;;10441813;27;20050;-63
2021/07/22 09:10:28;;;;;;;2.95;2.17;;;;;;;;;;10442366;27;20079;-64
2021/07/22 09:15:28;;;;;;;4.32;2.70;;;;;;;;;;10442833;27;20035;-63
2021/07/22 09:20:37;;;;;;;7.68;3.60;;;;;;;;;;10441476;27;20043;-63
2021/07/22 09:25:41;;;;;;;8.07;3.65;;;;;;;;;;10440931;27;20050;-63
2021/07/22 09:30:40;;;;;;;9.45;3.72;;;;;;;;;;10441467;27;20079;-64
2021/07/22 09:35:38;;;;;;;3.13;2.83;;;;;;;;;;10441369;27;20488;-63
2021/07/22 09:40:36;;;;;;;4.15;2.92;;;;;;;;;;10440697;27;20058;-63
2021/07/22 09:45:38;;;;;;;6.38;3.38;;;;;;;;;;10441082;27;20078;-63
2021/07/22 09:50:40;;;;;;;9.10;4.43;;;;;;;;;;10441348;27;20047;-63
2021/07/22 09:55:39;;;;;;;11.50;8.85;;;;;;;;;;10440742;27;20046;-64
2021/07/22 10:00:41;;;;;;;11.38;7.10;;;;;;;;;;10440660;27;20062;-64
2021/07/22 10:05:40;;;;;;;8.60;5.18;;;;;;;;;;10440688;27;20419;-64
2021/07/22 10:10:38;;;;;;;4.40;3.40;;;;;;;;;;10438446;27;20102;-64
2021/07/22 10:15:37;;;;;;;4.28;3.45;;;;;;;;;;10439088;28;20043;-63
2021/07/22 10:20:37;;;;;;;6.28;3.20;;;;;;;;;;10440093;28;20059;-63
2021/07/22 10:25:35;;;;;;;8.43;3.08;;;;;;;;;;10440090;28;20043;-64
2021/07/22 10:30:34;;;;;;;5.38;2.85;;;;;;;;;;10439051;28;20476;-63
2021/07/22 10:35:33;;;;;;;8.82;3.42;;;;;;;;;;10439101;28;20085;-63
2021/07/22 10:40:45;;;;;;;3.78;2.95;;;;;;;;;;10439742;28;20039;-63
2021/07/22 10:45:52;;;;;;;2.92;2.55;;;;;;;;;;10439802;28;20035;-64
2021/07/22 10:51:00;;;;;;;4.53;2.78;;;;;;;;;;10439298;28;20139;-64
2021/07/22 10:55:59;;;;;;;4.07;2.58;;;;;;;;;;10438262;28;20058;-64
2021/07/22 11:00:57;;;;;;;3.47;2.58;;;;;;;;;;10439694;28;20415;-63
2021/07/22 11:05:57;;;;;;;5.70;2.88;;;;;;;;;;10439199;28;20043;-64
2021/07/22 11:10:56;;;;;;;5.55;3.50;;;;;;;;;;10439310;28;20073;-63
2021/07/22 11:15:59;;;;;;;5.22;2.58;;;;;;;;;;10439338;28;20039;-63
2021/07/22 11:21:03;;;;;;;6.13;3.33;;;;;;;;;;10440773;27;20043;-64
2021/07/22 11:26:01;;;;;;;;;;;;;;;;;;10446870;27;20043;-64
2021/07/22 11:31:05;;;;;;;4.65;2.40;;;;;;;;;;10446317;27;20044;-63
2021/07/22 11:36:04;;;;;;;4.43;2.70;;;;;;;;;;10446298;27;20047;-63
2021/07/22 11:41:10;;;;;;;6.68;2.72;;;;;;;;;;10445644;27;20054;-64
2021/07/22 11:46:10;;;;;;;6.28;2.90;;;;;;;;;;10446003;27;20051;-64
2021/07/22 11:51:10;;;;;;;4.18;2.90;;;;;;;;;;10445813;27;20530;-63
2021/07/22 11:56:10;;;;;;;9.40;4.35;;;;;;;;;;10445102;27;20047;-64
2021/07/22 12:01:10;;;;;;;5.53;2.25;;;;;;;;;;10444435;27;20266;-64
2021/07/22 12:06:08;;;;;;;3.35;2.42;;;;;;;;;;10445400;27;20046;-63
2021/07/22 12:11:06;;;;;;;4.80;2.47;;;;;;;;;;10444764;27;20077;-63
2021/07/22 12:16:05;;;;;;;6.80;3.03;;;;;;;;;;10426443;27;20046;-64
2021/07/22 12:21:04;;;;;;;3.53;2.53;;;;;;;;;;10444552;27;20054;-64
2021/07/22 12:26:03;;;;;;;5.72;3.00;;;;;;;;;;10443665;27;20055;-64
2021/07/22 12:31:15;;;;;;;7.13;2.60;;;;;;;;;;10443419;27;20047;-64
2021/07/22 12:36:21;;;;;;;3.78;2.55;;;;;;;;;;10442657;27;20076;-64
2021/07/22 12:41:27;;;;;;;3.03;2.28;;;;;;;;;;10444023;27;20039;-63
2021/07/22 12:46:25;;;;;;;5.28;2.70;;;;;;;;;;10443604;27;20035;-63
2021/07/22 12:51:24;;;;;;;4.18;3.33;;;;;;;;;;10443369;27;20079;-64
2021/07/22 12:56:23;;;;;;;5.40;3.08;;;;;;;;;;10442940;27;20043;-64
2021/07/22 13:01:22;;;;;;;5.80;3.00;;;;;;;;;;10442246;27;20109;-64
2021/07/22 13:06:21;;;;;;;5.03;3.88;;;;;;;;;;10442884;27;20051;-64
2021/07/22 13:11:21;;;;;;;4.38;3.78;;;;;;;;;;10441988;27;20078;-63
2021/07/22 13:16:20;;;;;;;9.95;3.88;;;;;;;;;;10441775;27;20043;-63
2021/07/22 13:21:23;;;;;;;7.75;3.60;;;;;;;;;;10441408;27;20039;-64
2021/07/22 13:26:25;;;;;;;7.95;4.28;;;;;;;;;;10423094;27;20043;-64
2021/07/22 13:31:23;;;;;;;3.78;3.40;;;;;;;;;;10441006;27;20086;-64
2021/07/22 13:36:21;;;;;;;9.77;3.85;;;;;;;;;;10441277;27;20051;-64
2021/07/22 13:41:20;;;;;;;4.88;3.90;;;;;;;;;;10440448;27;20047;-64
2021/07/22 13:46:19;;;;;;;7.35;3.38;;;;;;;;;;10440405;27;20046;-63
2021/07/22 13:51:17;;;;;;;7.53;4.55;;;;;;;;;;10441118;27;20086;-64
2021/07/22 13:56:16;;;;;;;10.82;4.07;;;;;;;;;;10439391;27;20075;-64
2021/07/22 14:01:14;;;;;;;4.15;3.03;;;;;;;;;;10439499;27;20165;-64
2021/07/22 14:06:14;;;;;;;7.97;3.85;;;;;;;;;;10440455;27;20054;-63
2021/07/22 14:11:13;;;;;;;5.95;4.68;;;;;;;;;;10440194;27;20086;-64
2021/07/22 14:16:11;;;;;;;6.10;4.75;;;;;;;;;;10440491;28;20050;-64
2021/07/22 14:21:09;;;;;;;7.85;5.70;;;;;;;;;;10440293;28;20518;-63
2021/07/22 14:26:09;;;;;;;7.72;5.38;;;;;;;;;;10429563;28;20085;-63
2021/07/22 14:31:07;;;;;;;7.72;5.20;;;;;;;;;;10416647;28;20179;-62
2021/07/22 14:36:06;;;;;;;10.05;5.60;;;;;;;;;;10418747;28;20538;-62
2021/07/22 14:41:05;;;;;;;5.38;4.88;;;;;;;;;;10380299;28;20051;-63
2021/07/22 14:46:04;;;;;;;9.10;3.80;;;;;;;;;;10396108;28;20074;-63
2021/07/22 14:51:03;;;;;;;7.40;4.40;;;;;;;;;;10396365;28;20101;-63
2021/07/22 14:56:01;;;;;;;6.03;3.00;;;;;;;;;;10398580;28;20066;-62
2021/07/22 15:00:59;;;;;;;4.28;3.85;;;;;;;;;;10405300;28;20044;-62
2021/07/22 15:06:02;;;;;;;6.07;4.13;;;;;;;;;;10405855;28;20161;-62
2021/07/22 15:11:01;;;;;;;8.48;5.38;;;;;;;;;;10405408;28;20074;-62
2021/07/22 15:16:00;;;;;;;6.28;3.90;;;;;;;;;;10404372;28;20058;-62
2021/07/22 15:20:58;;;;;;;7.15;3.58;;;;;;;;;;10404903;28;20039;-63
2021/07/22 15:25:57;;;;;;;13.55;11.82;;;;;;;;;;10404724;28;20105;-64
2021/07/22 15:30:56;;;;;;;11.25;5.20;;;;;;;;;;10404318;28;20424;-62
2021/07/22 15:35:56;;;;;;;6.93;4.55;;;;;;;;;;10403522;28;20052;-62
2021/07/22 15:40:54;;;;;;;18.75;13.90;;;;;;;;;;10403970;28;20050;-62
2021/07/22 15:45:53;;;;;;;7.60;2.80;;;;;;;;;;10403385;28;20539;-63
2021/07/22 15:50:52;;;;;;;7.85;5.78;;;;;;;;;;10403648;28;20449;-62
2021/07/22 15:55:50;;;;;;;6.28;4.07;;;;;;;;;;10402679;28;20054;-63
2021/07/22 16:00:48;;;;;;;5.85;4.00;;;;;;;;;;10403457;28;20043;-63
2021/07/22 16:05:48;;;;;;;7.40;5.38;;;;;;;;;;10402390;28;20051;-63
2021/07/22 16:10:47;;;;;;;16.23;9.88;;;;;;;;;;10401530;28;20071;-62
2021/07/22 16:15:45;;;;;;;7.45;6.70;;;;;;;;;;10402799;28;20408;-62
2021/07/22 16:20:44;;;;;;;12.50;5.30;;;;;;;;;;10402289;28;20051;-63
2021/07/22 16:25:43;;;;;;;9.98;5.50;;;;;;;;;;10402401;28;20051;-62
2021/07/22 16:30:42;;;;;;;14.68;7.10;;;;;;;;;;10402012;28;20508;-63
2021/07/22 16:35:40;;;;;;;8.20;5.18;;;;;;;;;;10402172;28;20426;-63
2021/07/22 16:40:39;;;;;;;13.27;5.13;;;;;;;;;;10400912;28;20047;-64
2021/07/22 16:45:38;;;;;;;11.32;5.47;;;;;;;;;;10383188;28;20059;-66
2021/07/22 16:50:38;;;;;;;12.18;4.75;;;;;;;;;;10401141;28;20078;-66
2021/07/22 16:55:36;;;;;;;9.98;5.03;;;;;;;;;;10401082;28;20146;-65
2021/07/22 17:00:35;;;;;;;6.55;4.95;;;;;;;;;;10400875;28;20036;-67
2021/07/22 17:05:35;;;;;;;8.98;5.53;;;;;;;;;;10400356;28;20043;-66
2021/07/22 17:10:33;;;;;;;15.70;6.13;;;;;;;;;;10400303;28;20071;-66
2021/07/22 17:15:32;;;;;;;13.57;10.07;;;;;;;;;;10400281;28;20043;-66
2021/07/22 17:20:30;;;;;;;13.75;9.00;;;;;;;;;;10399552;28;20086;-66
2021/07/22 17:25:30;;;;;;;7.80;5.05;;;;;;;;;;10400235;28;20043;-67
2021/07/22 17:30:28;;;;;;;6.95;4.10;;;;;;;;;;10398859;28;20071;-66
2021/07/22 17:35:26;;;;;;;3.95;2.80;;;;;;;;;;10400213;28;20512;-67
2021/07/22 17:40:27;;;;;;;8.38;7.38;;;;;;;;;;10402085;27;20062;-65
2021/07/22 17:45:28;;;;;;;5.82;3.75;;;;;;;;;;10399394;27;20328;-65
2021/07/22 17:50:26;;;;;;;10.85;7.00;;;;;;;;;;10425817;27;20063;-64
2021/07/22 17:55:24;;;;;;;11.32;6.07;;;;;;;;;;10429059;27;20066;-66
2021/07/22 18:00:23;;;;;;;6.70;5.00;;;;;;;;;;10435257;27;20066;-66
2021/07/22 18:05:23;;;;;;;6.72;4.18;;;;;;;;;;10428470;27;20070;-65
2021/07/22 18:10:22;;;;;;;5.70;4.35;;;;;;;;;;10425944;27;20075;-65
2021/07/22 18:15:20;;;;;;;4.35;3.63;;;;;;;;;;10430166;27;20070;-67
2021/07/22 18:20:18;;;;;;;7.63;4.40;;;;;;;;;;10422620;27;20067;-66
2021/07/22 18:25:18;;;;;;;12.65;4.95;;;;;;;;;;10409965;27;20071;-67
2021/07/22 18:30:18;;;;;;;8.25;6.00;;;;;;;;;;10421665;27;20098;-65
2021/07/22 18:35:21;;;;;;;8.90;5.07;;;;;;;;;;10441085;27;20550;-66
2021/07/22 18:40:21;;;;;;;8.13;4.23;;;;;;;;;;10422296;27;20036;-67
2021/07/22 18:45:20;;;;;;;10.50;3.70;;;;;;;;;;10441966;27;20031;-66
2021/07/22 18:50:18;;;;;;;8.70;4.22;;;;;;;;;;10442100;27;20089;-67
2021/07/22 18:55:16;;;;;;;6.10;4.38;;;;;;;;;;10448581;27;20514;-66
2021/07/22 19:00:16;;;;;;;7.10;3.30;;;;;;;;;;10447425;27;20067;-67
2021/07/22 19:05:16;;;;;;;7.82;4.38;;;;;;;;;;10447595;27;20043;-65
2021/07/22 19:10:15;;;;;;;9.32;4.65;;;;;;;;;;10448156;27;20518;-65
2021/07/22 19:15:14;;;;;;;6.97;4.20;;;;;;;;;;10437057;27;20051;-65
2021/07/22 19:20:14;;;;;;;9.32;4.55;;;;;;;;;;10431253;27;20047;-65
2021/07/22 19:25:13;;;;;;;10.20;5.35;;;;;;;;;;10423483;27;20568;-66
2021/07/22 19:30:11;;;;;;;7.57;5.47;;;;;;;;;;10425810;27;20036;-66
2021/07/22 19:35:10;;;;;;;8.48;5.82;;;;;;;;;;10427896;27;20432;-66
2021/07/22 19:40:13;;;;;;;9.77;5.95;;;;;;;;;;10423403;27;20452;-66
2021/07/22 19:45:13;;;;;;;11.43;6.95;;;;;;;;;;10409992;27;20044;-66
2021/07/22 19:50:13;;;;;;;10.50;6.28;;;;;;;;;;10405134;28;20063;-66
2021/07/22 19:55:13;;;;;;;9.82;6.53;;;;;;;;;;10404980;28;20046;-67
2021/07/22 20:00:11;;;;;;;8.02;6.53;;;;;;;;;;10406129;27;20074;-66
2021/07/22 20:05:11;;;;;;;15.15;7.32;;;;;;;;;;10437173;27;20051;-66
2021/07/22 20:10:10;;;;;;;14.20;7.55;;;;;;;;;;10409626;27;20060;-66
2021/07/22 20:15:11;;;;;;;9.10;6.00;;;;;;;;;;10407057;27;20071;-65
2021/07/22 20:20:11;;;;;;;10.48;5.60;;;;;;;;;;10415820;27;20083;-66
2021/07/22 20:25:09;;;;;;;17.33;6.18;;;;;;;;;;10419965;27;20459;-67
2021/07/22 20:30:10;;;;;;;11.13;5.03;;;;;;;;;;10402669;28;20051;-66
2021/07/22 20:35:09;;;;;;;10.27;5.57;;;;;;;;;;10402290;28;20095;-67
2021/07/22 20:40:08;;;;;;;11.63;5.45;;;;;;;;;;10402852;28;20055;-65
2021/07/22 20:45:08;;;;;;;9.20;4.75;;;;;;;;;;10402421;28;20399;-66
2021/07/22 20:50:09;;;;;;;13.30;5.50;;;;;;;;;;10402787;28;20051;-64
2021/07/22 20:55:08;;;;;;;11.82;4.40;;;;;;;;;;10401138;28;20121;-65
2021/07/22 21:00:07;;;;;;;9.00;4.40;;;;;;;;;;10402404;28;20048;-66
2021/07/22 21:05:10;;;;;;;6.03;5.35;;;;;;;;;;10400976;28;20032;-65
2021/07/22 21:10:10;;;;;;;7.27;4.80;;;;;;;;;;10401243;28;20044;-67
2021/07/22 21:15:09;;;;;;;10.70;4.70;;;;;;;;;;10400881;28;20184;-66
2021/07/22 21:20:07;;;;;;;8.93;6.00;;;;;;;;;;10399607;28;20048;-67
2021/07/22 21:25:12;;;;;;;8.68;4.10;;;;;;;;;;10401442;28;20884;-65
2021/07/22 21:30:11;;;;;;;6.70;4.53;;;;;;;;;;10400826;28;20051;-67
2021/07/22 21:35:11;;;;;;;6.00;4.10;;;;;;;;;;10399625;28;20528;-67
2021/07/22 21:40:10;;;;;;;9.60;4.10;;;;;;;;;;10399991;28;20054;-67
2021/07/22 21:45:10;;;;;;;6.00;3.60;;;;;;;;;;10400592;28;20043;-66
2021/07/22 21:50:09;;;;;;;5.65;4.13;;;;;;;;;;10399977;28;20039;-67
2021/07/22 21:55:08;;;;;;;6.10;3.90;;;;;;;;;;10399477;28;20079;-63
2021/07/22 22:00:08;;;;;;;11.18;3.75;;;;;;;;;;10400121;28;20040;-67
2021/07/22 22:05:08;;;;;;;8.80;3.40;;;;;;;;;;10399451;28;20079;-67
2021/07/22 22:10:07;;;;;;;6.35;3.50;;;;;;;;;;10398971;28;20380;-66
2021/07/22 22:15:05;;;;;;;8.10;3.67;;;;;;;;;;10399421;28;20086;-67
2021/07/22 22:20:04;;;;;;;7.07;3.63;;;;;;;;;;10399736;28;20043;-67
2021/07/22 22:25:04;;;;;;;4.63;3.42;;;;;;;;;;10399566;28;20078;-67
2021/07/22 22:30:03;;;;;;;7.90;3.13;;;;;;;;;;10380736;28;20047;-67
2021/07/22 22:35:02;;;;;;;7.80;3.30;;;;;;;;;;10397395;28;20456;-67
2021/07/22 22:40:00;;;;;;;5.93;3.95;;;;;;;;;;10399379;28;20047;-65
2021/07/22 22:45:00;;;;;;;7.80;3.05;;;;;;;;;;10379821;28;20055;-68
2021/07/22 22:49:58;;;;;;;7.55;2.85;;;;;;;;;;10398225;28;20058;-66
2021/07/22 22:54:57;;;;;;;4.93;3.10;;;;;;;;;;10398747;28;20451;-67
2021/07/22 22:59:55;;;;;;;6.53;3.40;;;;;;;;;;10397732;28;20043;-67
2021/07/22 23:04:55;;;;;;;11.10;4.03;;;;;;;;;;10398465;28;20044;-67
2021/07/22 23:09:53;;;;;;;7.05;3.28;;;;;;;;;;10397901;28;20554;-66
2021/07/22 23:14:51;;;;;;;5.68;3.58;;;;;;;;;;10398632;28;20075;-67
2021/07/22 23:19:50;;;;;;;4.88;3.65;;;;;;;;;;10403112;28;20073;-66
2021/07/22 23:24:49;;;;;;;7.22;3.55;;;;;;;;;;10405858;28;20042;-66
2021/07/22 23:29:48;;;;;;;9.98;3.25;;;;;;;;;;10404944;28;20511;-67
2021/07/22 23:34:46;;;;;;;6.60;3.38;;;;;;;;;;10404477;28;20087;-67
2021/07/22 23:39:45;;;;;;;11.63;4.18;;;;;;;;;;10404475;28;20051;-66
2021/07/22 23:44:44;;;;;;;13.20;3.50;;;;;;;;;;10404686;28;20044;-67
2021/07/22 23:49:43;;;;;;;6.35;3.47;;;;;;;;;;10405007;28;20047;-67
2021/07/22 23:54:41;;;;;;;6.43;3.22;;;;;;;;;;10404755;28;20050;-67
2021/07/22 23:59:39;;;;;;;13.55;3.60;;;;;;;;;;10404690;28;20039;-66
